Terminal Aerodrome Forecast
Issued by NWS

Home | Current Version | Previous Version | Text Only | Print | Product List | Glossary On
Versions: 1 2 3 4 5 6 7 8 9 10 11 12
919
FTUS43 KFGF 302320
TAFBJI
TAF
KBJI 302320Z 0100/0124 09010KT P6SM SCT250
     FM010500 05006KT P6SM BKN200
     FM011400 02013KT P6SM -RA OVC070
     FM011600 02015G23KT P6SM -RA OVC030
     FM011900 01015G23KT P6SM OVC035=

USA.gov is the U.S. government's official web portal to all federal, state and local government web resources and services.